Time;durP1;ratioP1;P1;durP2;ratioP2;P2;SDS_P1;SDS_P2;PMS_P1;PMS_P2;Temp;Humidity;BMP_temperature;BMP_pressure;BME280_temperature;BME280_humidity;BME280_pressure;Samples;Min_cycle;Max_cycle;Signal;HPM_P1;HPM_P2
2021/01/03 00:01:46;;;;;;;6.33;5.03;;;;;;;2.59;90.74;99783.72;636651;222;24807;-74
2021/01/03 00:04:14;;;;;;;8.20;5.73;;;;;;;2.65;89.79;99773.48;635588;225;24833;-74
2021/01/03 00:06:42;;;;;;;6.17;5.30;;;;;;;2.72;89.23;99772.14;634014;226;24871;-74
2021/01/03 00:09:10;;;;;;;6.50;4.80;;;;;;;2.66;90.08;99766.13;661934;216;24746;-74
2021/01/03 00:11:38;;;;;;;8.43;6.22;;;;;;;2.66;90.29;99767.41;656573;216;43576;-74
2021/01/03 00:14:06;;;;;;;9.60;7.00;;;;;;;2.62;90.98;99759.11;656289;216;32840;-75
2021/01/03 00:16:34;;;;;;;10.00;7.10;;;;;;;2.65;91.55;99764.49;630525;225;32840;-75
2021/01/03 00:19:02;;;;;;;9.03;6.90;;;;;;;2.54;91.56;99768.28;635089;226;23849;-74
2021/01/03 00:21:30;;;;;;;10.00;6.90;;;;;;;2.56;91.49;99763.40;649105;221;24785;-73
2021/01/03 00:23:58;;;;;;;7.90;6.30;;;;;;;2.44;92.20;99763.41;635679;226;24903;-74
2021/01/03 00:26:26;;;;;;;9.10;7.37;;;;;;;2.47;93.00;99772.18;665006;216;24733;-72
2021/01/03 00:28:55;;;;;;;9.97;7.73;;;;;;;2.39;93.41;99766.27;649190;221;24786;-75
2021/01/03 00:31:24;;;;;;;13.00;7.93;;;;;;;2.40;93.37;99772.25;642817;221;24791;-73
2021/01/03 00:33:52;;;;;;;11.17;7.83;;;;;;;2.33;93.79;99770.09;648014;221;24798;-72
2021/01/03 00:36:20;;;;;;;10.10;7.77;;;;;;;2.33;93.80;99767.52;662249;217;24751;-72
2021/01/03 00:38:48;;;;;;;12.40;7.97;;;;;;;2.41;93.25;99759.78;635568;226;24858;-72
2021/01/03 00:41:16;;;;;;;11.60;8.43;;;;;;;2.37;93.59;99759.14;636124;225;26957;-73
2021/01/03 00:43:44;;;;;;;13.53;8.30;;;;;;;2.35;93.85;99759.25;635330;225;24836;-74
2021/01/03 00:46:12;;;;;;;13.43;8.98;;;;;;;2.42;94.92;99761.42;655042;217;32558;-72
2021/01/03 00:48:40;;;;;;;13.50;9.07;;;;;;;2.41;95.11;99756.75;661053;217;23642;-72
2021/01/03 00:51:08;;;;;;;12.57;8.70;;;;;;;2.42;94.63;99755.83;663413;216;24763;-74
2021/01/03 00:53:36;;;;;;;12.30;8.10;;;;;;;2.40;94.43;99751.73;639140;222;24831;-73
2021/01/03 00:56:04;;;;;;;13.67;8.57;;;;;;;2.27;95.06;99752.55;636409;225;24842;-73
2021/01/03 00:58:32;;;;;;;12.43;8.30;;;;;;;2.29;94.95;99754.55;660853;215;25064;-72
2021/01/03 01:01:00;;;;;;;12.43;8.70;;;;;;;2.26;95.60;99754.77;664272;215;25027;-73
2021/01/03 01:03:29;;;;;;;14.70;8.93;;;;;;;2.21;95.34;99756.80;641076;221;24950;-72
2021/01/03 01:05:56;;;;;;;12.90;7.83;;;;;;;2.17;96.06;99754.09;664300;216;24766;-73
2021/01/03 01:08:24;;;;;;;13.30;8.63;;;;;;;2.16;96.18;99753.73;661815;216;24775;-72
2021/01/03 01:10:52;;;;;;;13.57;9.00;;;;;;;2.13;96.10;99755.23;665098;215;24764;-73
2021/01/03 01:13:20;;;;;;;15.70;10.35;;;;;;;2.21;96.29;99759.83;630833;225;32910;-73
2021/01/03 01:15:48;;;;;;;13.00;9.10;;;;;;;2.26;96.23;99757.33;635968;226;23719;-75
2021/01/03 01:18:16;;;;;;;13.67;9.30;;;;;;;2.16;96.14;99751.17;662319;216;24755;-74
2021/01/03 01:20:45;;;;;;;15.17;9.30;;;;;;;2.16;96.37;99767.84;636493;225;24844;-75
2021/01/03 01:23:13;;;;;;;15.17;9.23;;;;;;;2.06;96.81;99767.63;663231;215;24780;-72
2021/01/03 01:25:41;;;;;;;14.90;9.60;;;;;;;2.04;97.10;99775.89;660696;216;24757;-72
2021/01/03 01:28:09;;;;;;;13.37;8.77;;;;;;;2.12;96.89;99770.27;660781;216;24792;-74
2021/01/03 01:30:37;;;;;;;14.77;9.43;;;;;;;2.13;97.00;99771.08;659976;217;24750;-74
2021/01/03 01:33:05;;;;;;;16.15;11.10;;;;;;;2.21;96.20;99765.78;656481;217;32580;-74
2021/01/03 01:35:33;;;;;;;15.03;10.30;;;;;;;2.07;96.23;99762.86;647648;221;23633;-77
2021/01/03 01:38:01;;;;;;;16.33;9.47;;;;;;;2.11;96.50;99768.59;636121;225;24882;-72
2021/01/03 01:40:29;;;;;;;13.37;9.47;;;;;;;2.14;96.39;99772.72;636910;226;24901;-74
2021/01/03 01:42:57;;;;;;;14.70;10.17;;;;;;;2.15;96.18;99767.48;634816;226;26002;-73
2021/01/03 01:45:25;;;;;;;15.40;10.00;;;;;;;2.33;95.81;99771.38;634911;226;24905;-74
2021/01/03 01:47:53;;;;;;;18.00;10.10;;;;;;;2.31;95.49;99770.66;634587;226;24922;-75
2021/01/03 01:50:21;;;;;;;16.50;9.17;;;;;;;2.22;95.34;99771.27;634941;225;24852;-74
2021/01/03 01:52:49;;;;;;;17.97;10.17;;;;;;;2.18;95.63;99764.71;661898;217;24763;-74
2021/01/03 01:55:18;;;;;;;16.43;9.70;;;;;;;2.24;95.34;99763.47;648322;221;26968;-75
2021/01/03 01:57:46;;;;;;;14.47;9.70;;;;;;;2.16;95.22;99760.14;635241;226;24907;-72
2021/01/03 02:00:15;;;;;;;18.07;10.13;;;;;;;2.09;95.41;99763.57;636170;226;24842;-73
2021/01/03 02:02:43;;;;;;;15.90;9.13;;;;;;;2.03;95.82;99761.42;646387;221;24809;-72
2021/01/03 02:05:11;;;;;;;18.80;10.20;;;;;;;2.09;95.96;99762.75;637104;224;24640;-73
2021/01/03 02:07:41;;;;;;;18.23;9.60;;;;;;;2.06;96.07;99762.96;661004;216;24783;-73
2021/01/03 02:10:11;;;;;;;16.33;9.17;;;;;;;2.14;96.24;99757.33;664161;215;24764;-74
2021/01/03 02:12:39;;;;;;;14.30;9.63;;;;;;;2.20;95.61;99757.73;635397;225;25936;-72
2021/01/03 02:15:09;;;;;;;14.30;9.73;;;;;;;2.13;95.93;99758.26;663705;216;24779;-72
2021/01/03 02:17:37;;;;;;;19.10;11.10;;;;;;;2.10;96.08;99763.11;647577;221;26019;-73
2021/01/03 02:20:07;;;;;;;15.73;9.60;;;;;;;2.16;96.16;99766.56;634496;225;24860;-73
2021/01/03 02:22:35;;;;;;;15.67;9.60;;;;;;;2.11;96.00;99753.20;621851;229;24935;-72
2021/01/03 02:25:04;;;;;;;16.90;10.13;;;;;;;2.18;95.49;99755.73;634465;225;24850;-72
2021/01/03 02:27:36;;;;;;;14.50;9.57;;;;;;;2.20;95.35;99758.19;649114;221;24805;-74
2021/01/03 02:30:05;;;;;;;15.57;9.90;;;;;;;2.20;95.29;99755.16;663230;215;24763;-73
2021/01/03 02:32:33;;;;;;;16.70;10.17;;;;;;;2.26;95.41;99753.95;645072;221;24840;-72
2021/01/03 02:35:01;;;;;;;13.17;9.00;;;;;;;2.23;95.19;99753.66;635751;226;24868;-72
2021/01/03 02:37:30;;;;;;;18.37;10.10;;;;;;;2.24;94.91;99746.33;634828;225;24810;-76
2021/01/03 02:39:58;;;;;;;15.90;10.00;;;;;;;2.25;94.65;99748.00;635904;225;24864;-72
2021/01/03 02:42:25;;;;;;;15.87;9.63;;;;;;;2.18;94.96;99745.47;633676;226;24865;-72
2021/01/03 02:44:53;;;;;;;17.30;9.70;;;;;;;2.16;95.65;99747.78;635503;226;24836;-72
2021/01/03 02:47:22;;;;;;;16.23;10.43;;;;;;;2.16;95.14;99746.04;635060;226;24985;-72
2021/01/03 02:49:50;;;;;;;17.17;10.13;;;;;;;2.14;95.52;99747.89;648413;221;24803;-74
2021/01/03 02:52:18;;;;;;;16.53;10.40;;;;;;;2.01;95.66;99744.50;661736;216;27933;-72
2021/01/03 02:54:46;;;;;;;15.30;9.50;;;;;;;2.02;96.27;99749.98;646381;221;24859;-72
2021/01/03 02:57:14;;;;;;;15.03;9.43;;;;;;;1.97;97.06;99758.44;635391;226;24838;-74
2021/01/03 02:59:42;;;;;;;16.63;9.13;;;;;;;1.98;97.65;99759.64;661698;217;24763;-72
2021/01/03 03:02:10;;;;;;;16.40;9.83;;;;;;;1.93;97.75;99760.38;663594;216;24802;-72
2021/01/03 03:04:38;;;;;;;15.97;10.40;;;;;;;1.83;98.22;99754.67;634479;226;24851;-73
2021/01/03 03:07:06;;;;;;;17.90;10.53;;;;;;;1.84;98.39;99753.78;662669;217;25796;-72
2021/01/03 03:09:34;;;;;;;17.40;9.87;;;;;;;1.90;98.08;99750.34;637326;224;24842;-72
2021/01/03 03:12:02;;;;;;;14.70;9.80;;;;;;;1.78;97.35;99737.86;640759;221;24828;-73
2021/01/03 03:14:30;;;;;;;16.23;11.05;;;;;;;1.82;97.60;99749.19;630286;226;33382;-72
2021/01/03 03:16:58;;;;;;;16.60;10.60;;;;;;;1.78;97.59;99746.84;638466;223;23780;-74
2021/01/03 03:19:26;;;;;;;15.73;10.60;;;;;;;1.74;99.09;99746.69;664356;216;24772;-73
2021/01/03 03:21:53;;;;;;;13.43;8.90;;;;;;;1.76;98.13;99742.28;636998;225;24873;-75
2021/01/03 03:24:21;;;;;;;13.23;8.23;;;;;;;1.71;97.15;99739.67;661878;216;24770;-72
2021/01/03 03:26:52;;;;;;;14.33;9.70;;;;;;;1.77;97.71;99741.35;662612;216;24759;-73
2021/01/03 03:29:20;;;;;;;12.63;8.70;;;;;;;1.73;97.99;99739.92;637936;225;27041;-74
2021/01/03 03:31:48;;;;;;;17.43;9.60;;;;;;;1.68;98.15;99729.59;633878;225;24833;-72
2021/01/03 03:34:16;;;;;;;14.43;9.83;;;;;;;1.73;98.50;99742.48;660993;216;24786;-73
2021/01/03 03:36:44;;;;;;;15.10;9.60;;;;;;;1.73;98.60;99738.64;661752;216;24754;-73
2021/01/03 03:39:12;;;;;;;16.23;11.08;;;;;;;1.88;97.02;99738.55;631024;225;33224;-74
2021/01/03 03:41:40;;;;;;;16.70;10.70;;;;;;;1.76;97.54;99739.72;661677;216;23642;-72
2021/01/03 03:44:08;;;;;;;14.30;9.00;;;;;;;1.80;97.77;99744.17;634243;225;24865;-73
2021/01/03 03:46:36;;;;;;;14.60;9.10;;;;;;;1.66;97.15;99724.57;662297;216;24792;-73
2021/01/03 03:49:04;;;;;;;15.07;9.17;;;;;;;1.76;97.32;99735.87;661757;216;24761;-72
2021/01/03 03:51:32;;;;;;;14.40;9.40;;;;;;;1.76;97.74;99739.72;633478;225;24837;-73
2021/01/03 03:54:00;;;;;;;14.37;9.63;;;;;;;1.68;97.07;99727.84;660585;217;24765;-74
2021/01/03 03:56:28;;;;;;;16.80;8.97;;;;;;;1.70;97.09;99726.03;634168;226;24847;-72
2021/01/03 03:58:57;;;;;;;16.93;9.60;;;;;;;1.72;97.34;99730.59;664424;216;24741;-72
2021/01/03 04:01:26;;;;;;;15.27;10.00;;;;;;;1.70;97.04;99727.78;662780;216;24777;-78
2021/01/03 04:03:54;;;;;;;14.10;9.43;;;;;;;1.64;97.12;99728.98;633909;226;28052;-76
2021/01/03 04:06:27;;;;;;;16.63;9.33;;;;;;;1.60;97.55;99726.73;660722;217;24779;-74
2021/01/03 04:08:55;;;;;;;13.13;9.33;;;;;;;1.61;96.56;99718.94;634893;226;25030;-74
2021/01/03 04:11:23;;;;;;;16.37;10.95;;;;;;;1.65;96.06;99722.93;630015;226;32954;-75
2021/01/03 04:13:51;;;;;;;15.77;9.83;;;;;;;1.64;96.70;99724.31;662486;216;23626;-74
2021/01/03 04:16:19;;;;;;;15.23;10.88;;;;;;;1.67;95.96;99722.37;628894;226;32907;-78
2021/01/03 04:18:47;;;;;;;15.80;9.80;;;;;;;1.60;95.83;99721.14;634552;226;23734;-74
2021/01/03 04:21:15;;;;;;;15.60;9.67;;;;;;;1.58;95.98;99723.45;661817;216;24787;-74
2021/01/03 04:23:43;;;;;;;13.33;8.70;;;;;;;1.64;95.98;99723.03;664604;216;24762;-75
2021/01/03 04:26:16;;;;;;;11.60;8.17;;;;;;;1.62;95.83;99718.02;636012;225;24870;-74
2021/01/03 04:28:44;;;;;;;15.20;8.80;;;;;;;1.54;95.83;99708.71;636863;225;24848;-74
2021/01/03 04:31:12;;;;;;;15.53;9.03;;;;;;;1.67;95.80;99721.55;636211;225;24834;-72
2021/01/03 04:33:42;;;;;;;14.38;10.50;;;;;;;1.65;95.19;99720.83;657853;215;33072;-72
2021/01/03 04:36:13;;;;;;;15.20;10.20;;;;;;;1.66;95.33;99707.91;658301;215;32586;-73
2021/01/03 04:38:41;;;;;;;14.27;10.30;;;;;;;1.61;95.49;99719.40;664319;215;25934;-72
2021/01/03 04:41:12;;;;;;;15.70;9.07;;;;;;;1.61;95.13;99713.81;666851;215;24759;-72
2021/01/03 04:43:40;;;;;;;13.57;9.60;;;;;;;1.67;95.28;99717.70;643922;220;32731;-73
2021/01/03 04:46:08;;;;;;;14.05;10.60;;;;;;;1.77;95.10;99718.75;639704;221;32746;-72
2021/01/03 04:48:36;;;;;;;13.98;10.70;;;;;;;1.88;94.44;99721.42;656814;216;43339;-73
2021/01/03 04:51:24;;;;;;;14.43;10.68;;;;;;;1.77;95.11;99717.00;657167;216;32577;-72
2021/01/03 04:53:57;;;;;;;14.30;10.00;;;;;;;1.66;94.46;99711.75;659353;216;23672;-73
2021/01/03 04:56:31;;;;;;;12.03;8.70;;;;;;;1.63;95.72;99717.09;662360;216;25174;-72
2021/01/03 04:59:03;;;;;;;10.90;7.83;;;;;;;1.68;95.57;99718.87;635914;224;24840;-72
2021/01/03 05:01:41;;;;;;;14.35;9.90;;;;;;;1.69;94.81;99703.89;630513;224;32890;-73
2021/01/03 05:04:16;;;;;;;15.13;9.33;;;;;;;1.68;95.57;99714.22;636378;225;23715;-76
2021/01/03 05:06:46;;;;;;;14.27;8.87;;;;;;;1.65;95.78;99716.52;661364;217;24851;-75
2021/01/03 05:09:14;;;;;;;10.53;7.57;;;;;;;1.72;95.78;99716.95;634924;226;24875;-77
2021/01/03 05:11:43;;;;;;;13.05;9.43;;;;;;;1.74;95.04;99716.39;657202;217;32521;-75
2021/01/03 05:14:14;;;;;;;13.00;9.10;;;;;;;1.75;95.79;99721.41;635204;226;27939;-74
2021/01/03 05:16:42;;;;;;;11.70;9.13;;;;;;;1.73;95.18;99713.01;642566;221;43758;-75
2021/01/03 05:19:10;;;;;;;13.83;9.98;;;;;;;1.87;94.33;99712.09;630249;225;32869;-76
2021/01/03 05:21:45;;;;;;;10.97;8.60;;;;;;;1.71;94.98;99709.73;635343;226;26872;-74
2021/01/03 05:24:13;;;;;;;10.93;8.23;;;;;;;1.75;94.66;99715.00;661714;217;24805;-75
2021/01/03 05:26:41;;;;;;;12.70;8.20;;;;;;;1.77;94.91;99714.44;633936;226;24834;-75
2021/01/03 05:29:10;;;;;;;12.47;9.38;;;;;;;2.00;94.09;99710.81;657670;216;32554;-77
2021/01/03 05:31:38;;;;;;;13.93;10.23;;;;;;;1.98;93.81;99715.23;635875;225;23699;-72
2021/01/03 05:34:07;;;;;;;10.03;8.27;;;;;;;1.90;94.25;99720.03;635265;225;24846;-76
2021/01/03 05:36:35;;;;;;;12.33;10.00;;;;;;;1.95;94.76;99725.66;635497;226;24875;-73
2021/01/03 05:39:04;;;;;;;11.43;8.67;;;;;;;1.98;94.93;99722.92;633577;224;24847;-76
2021/01/03 05:41:38;;;;;;;12.70;8.70;;;;;;;2.04;94.84;99727.63;638790;224;24839;-75
2021/01/03 05:44:10;;;;;;;11.43;8.00;;;;;;;2.02;94.81;99728.20;660850;216;25863;-72
2021/01/03 05:46:38;;;;;;;11.60;8.40;;;;;;;2.02;94.79;99725.63;636457;225;24830;-74
2021/01/03 05:49:06;;;;;;;14.77;9.77;;;;;;;2.05;94.34;99726.70;634935;225;24849;-73
2021/01/03 05:51:37;;;;;;;10.80;8.60;;;;;;;2.10;94.54;99729.77;662269;216;24744;-73
2021/01/03 05:54:05;;;;;;;14.50;9.20;;;;;;;2.01;94.77;99732.50;661104;216;26919;-74
2021/01/03 05:56:34;;;;;;;12.77;8.80;;;;;;;2.06;94.51;99734.29;635752;225;24849;-74
2021/01/03 05:59:02;;;;;;;15.37;9.40;;;;;;;2.05;94.87;99741.63;661496;216;26934;-74
2021/01/03 06:01:30;;;;;;;14.15;10.95;;;;;;;2.20;94.71;99737.20;631124;225;33469;-73
2021/01/03 06:04:02;;;;;;;12.97;9.70;;;;;;;1.97;94.96;99734.92;635966;226;23709;-72
2021/01/03 06:06:35;;;;;;;14.73;9.47;;;;;;;1.89;95.47;99735.06;662816;216;24748;-75
2021/01/03 06:09:03;;;;;;;12.67;9.23;;;;;;;1.94;95.45;99744.08;634297;225;24844;-75
2021/01/03 06:11:31;;;;;;;12.50;9.30;;;;;;;1.88;95.87;99746.24;643556;221;24803;-75
2021/01/03 06:13:59;;;;;;;17.17;11.95;;;;;;;2.12;95.35;99740.77;629055;225;33191;-74
2021/01/03 06:16:27;;;;;;;15.80;10.40;;;;;;;1.95;95.94;99747.00;634913;226;23756;-73
2021/01/03 06:19:01;;;;;;;14.58;11.78;;;;;;;2.14;95.95;99738.09;634660;222;32804;-74
2021/01/03 06:21:29;;;;;;;18.12;12.85;;;;;;;2.23;94.87;99738.73;654427;217;32568;-76
2021/01/03 06:24:02;;;;;;;17.47;10.80;;;;;;;2.10;95.37;99741.30;634536;226;23729;-72
2021/01/03 06:26:30;;;;;;;17.57;10.67;;;;;;;2.04;96.24;99747.67;634913;226;24842;-79
2021/01/03 06:28:58;;;;;;;12.93;8.80;;;;;;;1.93;96.71;99744.18;660081;217;24769;-72
2021/01/03 06:31:49;;;;;;;18.10;11.40;;;;;;;1.92;97.47;99747.20;635952;226;24833;-73
2021/01/03 06:34:17;;;;;;;15.93;10.27;;;;;;;1.88;97.83;99748.34;636125;226;28019;-73
2021/01/03 06:36:47;;;;;;;15.57;10.97;;;;;;;1.86;97.88;99748.09;635791;226;24851;-76
2021/01/03 06:39:29;;;;;;;17.17;12.85;;;;;;;2.17;97.21;99750.25;627515;226;32933;-73
2021/01/03 06:41:58;;;;;;;17.90;11.33;;;;;;;1.97;97.61;99748.17;634211;226;23688;-72
2021/01/03 06:44:43;;;;;;;17.27;11.97;;;;;;;1.72;98.50;99751.09;649343;221;25113;-73
2021/01/03 06:47:17;;;;;;;16.40;11.80;;;;;;;1.74;98.96;99747.15;662458;217;24764;-74
2021/01/03 06:50:03;;;;;;;16.80;11.10;;;;;;;1.85;98.99;99750.30;642156;222;24837;-75
2021/01/03 06:52:41;;;;;;;15.40;10.40;;;;;;;1.76;99.66;99749.97;649083;221;24817;-72
2021/01/03 06:55:16;;;;;;;16.07;10.60;;;;;;;1.72;99.69;99752.38;664776;216;24765;-72
2021/01/03 06:57:54;;;;;;;15.57;10.60;;;;;;;1.70;100.00;99759.35;662736;216;24767;-72
2021/01/03 07:00:23;;;;;;;18.37;11.60;;;;;;;1.71;99.98;99751.20;664902;215;24751;-72
2021/01/03 07:02:53;;;;;;;16.40;10.67;;;;;;;1.68;100.00;99754.76;634036;225;24857;-74
2021/01/03 07:05:21;;;;;;;18.03;12.17;;;;;;;1.68;100.00;99752.66;635178;225;24911;-72
2021/01/03 07:07:58;;;;;;;15.50;10.47;;;;;;;1.64;100.00;99753.79;635700;225;24858;-73
2021/01/03 07:10:33;;;;;;;15.70;11.53;;;;;;;1.59;100.00;99754.09;647941;220;24820;-73
2021/01/03 07:13:02;;;;;;;15.17;10.30;;;;;;;1.58;100.00;99758.05;648171;221;24841;-72
2021/01/03 07:15:38;;;;;;;16.57;11.27;;;;;;;1.46;100.00;99755.81;643592;221;24789;-73
2021/01/03 07:18:21;;;;;;;17.87;11.20;;;;;;;1.35;100.00;99748.80;647146;221;24811;-73
2021/01/03 07:20:52;;;;;;;14.63;10.50;;;;;;;1.51;100.00;99756.78;646990;221;24796;-72
2021/01/03 07:23:21;;;;;;;17.63;11.50;;;;;;;1.51;100.00;99755.04;647211;221;24809;-75
2021/01/03 07:25:55;;;;;;;17.70;11.60;;;;;;;1.51;100.00;99756.32;648789;221;24806;-73
2021/01/03 07:28:25;;;;;;;18.07;11.83;;;;;;;1.49;100.00;99760.27;647124;221;24821;-72
2021/01/03 07:30:55;;;;;;;18.27;11.80;;;;;;;1.59;100.00;99767.38;648255;221;24782;-72
2021/01/03 07:33:27;;;;;;;16.87;12.30;;;;;;;1.54;100.00;99762.52;646752;221;24815;-73
2021/01/03 07:35:55;;;;;;;14.57;10.90;;;;;;;1.62;100.00;99764.61;647567;221;26075;-75
2021/01/03 07:38:25;;;;;;;18.13;11.53;;;;;;;1.63;100.00;99768.34;647001;221;25153;-72
2021/01/03 07:40:55;;;;;;;16.70;11.30;;;;;;;1.65;100.00;99763.94;631263;226;29136;-72
2021/01/03 07:43:23;;;;;;;16.60;11.53;;;;;;;1.65;100.00;99768.24;636075;226;24832;-73
2021/01/03 07:45:51;;;;;;;18.80;12.97;;;;;;;1.69;100.00;99765.83;634430;226;24838;-74
2021/01/03 07:48:29;;;;;;;17.90;12.00;;;;;;;1.75;100.00;99762.42;635644;226;24846;-73
2021/01/03 07:50:57;;;;;;;18.43;12.43;;;;;;;1.73;100.00;99768.58;635634;226;24852;-74
2021/01/03 07:53:26;;;;;;;19.13;11.70;;;;;;;1.56;100.00;99763.27;646674;221;24837;-73
2021/01/03 07:55:55;;;;;;;15.70;12.07;;;;;;;1.57;100.00;99766.19;663565;216;24775;-74
2021/01/03 07:58:23;;;;;;;16.90;10.80;;;;;;;1.75;100.00;99765.45;648404;221;24795;-72
2021/01/03 08:00:53;;;;;;;15.97;11.70;;;;;;;1.62;100.00;99767.98;662020;217;24739;-73
2021/01/03 08:03:21;;;;;;;18.93;12.63;;;;;;;1.55;100.00;99764.63;663199;215;24764;-73
2021/01/03 08:05:49;;;;;;;20.10;12.53;;;;;;;1.57;100.00;99771.78;664824;216;24748;-73
2021/01/03 08:08:17;;;;;;;16.97;11.70;;;;;;;1.56;100.00;99768.86;662362;216;24761;-72
2021/01/03 08:10:45;;;;;;;20.00;12.67;;;;;;;1.48;100.00;99765.03;636676;225;24874;-72
2021/01/03 08:13:14;;;;;;;18.10;11.87;;;;;;;1.58;100.00;99768.30;636158;226;24910;-73
2021/01/03 08:15:42;;;;;;;19.37;12.20;;;;;;;1.58;100.00;99769.11;661631;216;25814;-75
2021/01/03 08:18:13;;;;;;;21.40;13.20;;;;;;;1.68;100.00;99767.58;636788;225;24861;-75
2021/01/03 08:20:41;;;;;;;20.37;12.60;;;;;;;1.65;100.00;99773.37;662042;216;24756;-73
2021/01/03 08:23:11;;;;;;;21.53;13.60;;;;;;;1.60;100.00;99771.11;634715;222;24799;-74
2021/01/03 08:25:39;;;;;;;23.67;14.10;;;;;;;1.54;100.00;99776.61;636448;223;24868;-72
2021/01/03 08:28:08;;;;;;;20.30;13.60;;;;;;;1.70;100.00;99778.58;648080;220;24797;-73
2021/01/03 08:30:36;;;;;;;21.33;13.80;;;;;;;1.71;100.00;99782.78;636586;225;24838;-73
2021/01/03 08:33:08;;;;;;;20.40;12.97;;;;;;;1.87;100.00;99789.00;663961;216;24764;-73
2021/01/03 08:35:36;;;;;;;21.43;13.90;;;;;;;1.81;100.00;99789.85;661727;216;24749;-72
2021/01/03 08:38:04;;;;;;;22.60;13.43;;;;;;;1.80;100.00;99792.88;646701;221;24777;-73
2021/01/03 08:40:32;;;;;;;23.33;14.33;;;;;;;1.85;100.00;99791.31;634944;220;24815;-72
2021/01/03 08:43:00;;;;;;;20.67;14.57;;;;;;;1.80;100.00;99791.59;663320;216;24762;-72
2021/01/03 08:45:29;;;;;;;22.50;12.60;;;;;;;1.88;100.00;99789.83;644920;221;24787;-72
2021/01/03 08:48:00;;;;;;;20.37;13.13;;;;;;;1.88;100.00;99784.70;644590;221;24849;-73
2021/01/03 08:50:29;;;;;;;18.50;13.60;;;;;;;1.94;100.00;99788.95;662593;217;24750;-74
2021/01/03 08:52:57;;;;;;;19.27;14.30;;;;;;;1.92;100.00;99797.67;634911;225;27022;-72
2021/01/03 08:55:25;;;;;;;21.07;14.37;;;;;;;1.95;100.00;99798.28;646688;221;24839;-73
2021/01/03 08:57:55;;;;;;;19.47;13.37;;;;;;;1.96;100.00;99802.95;646689;221;24786;-73
2021/01/03 09:00:23;;;;;;;19.90;12.90;;;;;;;2.00;100.00;99796.72;647069;221;27034;-74
2021/01/03 09:02:53;;;;;;;23.40;14.70;;;;;;;2.04;100.00;99801.99;644943;221;24786;-75
2021/01/03 09:05:21;;;;;;;20.77;14.40;;;;;;;1.98;100.00;99806.26;634891;226;27015;-73
2021/01/03 09:07:49;;;;;;;23.77;14.20;;;;;;;1.90;100.00;99804.19;664311;216;24738;-74
2021/01/03 09:10:20;;;;;;;18.90;13.23;;;;;;;2.01;100.00;99809.44;634592;226;24856;-73
2021/01/03 09:12:48;;;;;;;21.70;14.37;;;;;;;2.08;100.00;99809.38;663207;215;24770;-73
2021/01/03 09:15:16;;;;;;;19.43;13.63;;;;;;;2.08;100.00;99817.53;636535;225;24897;-74
2021/01/03 09:17:44;;;;;;;20.53;14.70;;;;;;;2.08;100.00;99816.25;637275;225;24867;-73
2021/01/03 09:20:15;;;;;;;21.67;14.73;;;;;;;2.09;100.00;99816.61;649564;221;24802;-73
2021/01/03 09:22:43;;;;;;;20.27;13.77;;;;;;;2.32;100.00;99819.77;662951;216;24929;-73
2021/01/03 09:25:16;;;;;;;26.68;17.87;;;;;;;2.58;100.00;99812.05;640394;221;32756;-73
2021/01/03 09:27:44;;;;;;;22.53;16.07;;;;;;;2.52;100.00;99813.73;662135;216;26831;-74
2021/01/03 09:30:14;;;;;;;22.33;15.20;;;;;;;2.63;100.00;99815.94;637177;225;28025;-75
2021/01/03 09:32:42;;;;;;;19.20;13.10;;;;;;;2.75;100.00;99817.31;634643;225;24831;-73
2021/01/03 09:35:13;;;;;;;18.47;13.93;;;;;;;2.82;100.00;99821.94;635152;225;24846;-73
2021/01/03 09:37:41;;;;;;;23.30;15.43;;;;;;;2.82;100.00;99818.55;661365;216;24801;-74
2021/01/03 09:40:16;;;;;;;20.70;14.23;;;;;;;2.88;100.00;99821.51;634349;225;24870;-75
2021/01/03 09:42:46;;;;;;;17.33;12.70;;;;;;;2.62;100.00;99822.47;663139;215;24784;-74
2021/01/03 09:45:37;;;;;;;20.97;13.87;;;;;;;2.48;100.00;99823.86;635621;225;25977;-75
2021/01/03 09:48:05;;;;;;;18.80;13.30;;;;;;;2.57;100.00;99824.53;663940;215;24773;-76
2021/01/03 09:50:34;;;;;;;23.27;15.17;;;;;;;2.50;100.00;99830.99;660885;217;24771;-75
2021/01/03 09:53:09;;;;;;;21.17;13.90;;;;;;;2.53;100.00;99823.08;657125;217;24760;-74
2021/01/03 09:55:40;;;;;;;23.03;14.70;;;;;;;2.50;100.00;99823.30;656337;217;24744;-76
2021/01/03 09:58:08;;;;;;;22.13;14.30;;;;;;;2.40;100.00;99824.86;647931;221;25957;-73
2021/01/03 10:00:48;;;;;;;19.93;13.80;;;;;;;2.44;100.00;99821.16;646520;221;24811;-73
2021/01/03 10:03:16;;;;;;;19.67;13.67;;;;;;;2.47;100.00;99820.94;634487;226;24878;-73
2021/01/03 10:05:44;;;;;;;22.63;14.63;;;;;;;2.37;100.00;99820.27;633939;226;26987;-73
2021/01/03 10:08:16;;;;;;;23.10;15.67;;;;;;;2.66;100.00;99820.04;662684;217;24909;-74
2021/01/03 10:10:44;;;;;;;22.97;14.70;;;;;;;2.70;100.00;99817.64;660910;217;29235;-73
2021/01/03 10:13:12;;;;;;;26.67;17.00;;;;;;;2.71;100.00;99822.31;646870;221;24819;-73
2021/01/03 10:15:40;;;;;;;25.20;16.27;;;;;;;2.63;100.00;99824.11;662223;216;24738;-73
2021/01/03 10:18:08;;;;;;;26.70;17.63;;;;;;;2.44;100.00;99828.85;660938;217;24789;-73
2021/01/03 10:20:39;;;;;;;26.07;15.90;;;;;;;2.50;100.00;99822.83;646637;221;24808;-74
2021/01/03 10:23:07;;;;;;;24.80;16.03;;;;;;;2.59;100.00;99826.06;661756;216;24753;-72
2021/01/03 10:25:35;;;;;;;24.80;17.47;;;;;;;2.61;100.00;99824.67;632109;224;24872;-72
2021/01/03 10:28:05;;;;;;;25.80;15.63;;;;;;;2.49;100.00;99822.94;639747;224;24896;-74
2021/01/03 10:30:33;;;;;;;25.07;15.77;;;;;;;2.51;100.00;99823.65;659951;216;24746;-73
2021/01/03 10:33:01;;;;;;;22.87;15.40;;;;;;;2.43;100.00;99816.95;661841;216;24760;-74
2021/01/03 10:35:29;;;;;;;24.33;16.43;;;;;;;2.37;100.00;99824.11;660515;216;26944;-73
2021/01/03 10:37:57;;;;;;;26.80;16.13;;;;;;;2.52;100.00;99817.59;648834;221;24866;-73
2021/01/03 10:40:25;;;;;;;26.10;18.67;;;;;;;2.89;100.00;99812.88;655918;216;32757;-74
2021/01/03 10:42:53;;;;;;;23.93;16.40;;;;;;;2.65;100.00;99813.27;640021;224;23695;-72
2021/01/03 10:45:21;;;;;;;23.73;16.37;;;;;;;2.61;100.00;99818.27;660149;216;24771;-73
2021/01/03 10:47:49;;;;;;;22.47;14.40;;;;;;;2.59;100.00;99813.70;633223;224;24893;-73
2021/01/03 10:50:18;;;;;;;23.10;15.40;;;;;;;2.61;100.00;99814.41;646490;221;25092;-73
2021/01/03 10:52:46;;;;;;;24.90;18.73;;;;;;;2.93;99.54;99811.72;628077;226;33304;-74
2021/01/03 10:55:15;;;;;;;21.93;16.50;;;;;;;2.72;100.00;99812.40;661739;216;23674;-75
2021/01/03 10:57:42;;;;;;;21.70;15.00;;;;;;;2.76;100.00;99810.79;663142;215;26096;-76
2021/01/03 11:00:12;;;;;;;26.48;19.67;;;;;;;2.92;99.34;99807.52;632485;224;40040;-73
2021/01/03 11:02:40;;;;;;;21.57;16.03;;;;;;;2.79;100.00;99811.03;661342;217;23660;-75
2021/01/03 11:05:09;;;;;;;24.80;16.23;;;;;;;2.56;100.00;99807.03;664809;216;24797;-74
2021/01/03 11:07:37;;;;;;;23.97;16.00;;;;;;;2.55;100.00;99808.42;664807;216;24778;-74
2021/01/03 11:10:05;;;;;;;27.50;16.87;;;;;;;2.51;100.00;99805.69;634254;226;24879;-78
2021/01/03 11:12:33;;;;;;;23.93;14.97;;;;;;;2.64;100.00;99800.89;662535;216;24781;-75
2021/01/03 11:15:01;;;;;;;26.27;19.27;;;;;;;2.89;100.00;99793.61;640974;221;43938;-74
2021/01/03 11:17:29;;;;;;;27.90;20.52;;;;;;;3.06;99.17;99789.04;630401;224;33968;-75
2021/01/03 11:19:57;;;;;;;27.65;20.45;;;;;;;3.08;99.10;99783.33;626316;226;33452;-73
2021/01/03 11:22:25;;;;;;;27.10;16.53;;;;;;;2.80;100.00;99785.72;634593;226;23798;-74
2021/01/03 11:24:53;;;;;;;22.10;15.50;;;;;;;2.58;100.00;99788.95;633942;225;24850;-75
2021/01/03 11:27:21;;;;;;;25.37;15.43;;;;;;;2.36;100.00;99785.27;645300;221;24832;-72
2021/01/03 11:29:49;;;;;;;23.77;17.98;;;;;;;2.95;100.00;99784.64;629671;226;33232;-77
2021/01/03 11:32:17;;;;;;;24.90;16.40;;;;;;;2.59;100.00;99785.46;637185;224;23699;-74
2021/01/03 11:34:45;;;;;;;26.68;19.67;;;;;;;2.97;100.00;99782.82;654712;216;32671;-74
2021/01/03 11:37:13;;;;;;;28.90;18.10;;;;;;;2.80;100.00;99781.40;634726;225;23720;-74